createdAt,value
2019-06-20T00:02:02.591Z,6.53
2019-06-20T00:04:32.569Z,6.53
2019-06-20T00:07:02.622Z,7.73
2019-06-20T00:09:32.710Z,8.03
2019-06-20T00:12:02.610Z,6.17
2019-06-20T00:14:32.557Z,6.63
2019-06-20T00:17:02.545Z,6.57
2019-06-20T00:19:34.186Z,6.17
2019-06-20T00:22:04.165Z,6.00
2019-06-20T00:24:34.175Z,8.83
2019-06-20T00:27:04.251Z,4.47
2019-06-20T00:29:34.190Z,4.67
2019-06-20T00:32:04.190Z,9.78
2019-06-20T00:34:34.176Z,4.53
2019-06-20T00:37:04.149Z,4.00
2019-06-20T00:39:34.163Z,4.60
2019-06-20T00:42:04.259Z,3.83
2019-06-20T00:44:35.161Z,4.73
2019-06-20T00:47:05.137Z,4.30
2019-06-20T00:49:35.047Z,4.53
2019-06-20T00:52:05.125Z,4.50
2019-06-20T00:54:35.057Z,3.90
2019-06-20T00:57:05.218Z,3.47
2019-06-20T00:59:35.207Z,4.00
2019-06-20T01:02:05.299Z,4.70
2019-06-20T01:04:35.390Z,3.53
2019-06-20T01:07:05.572Z,3.03
2019-06-20T01:09:35.906Z,2.93
2019-06-20T01:12:06.007Z,3.43
2019-06-20T01:14:36.085Z,3.20
2019-06-20T01:17:06.133Z,2.50
2019-06-20T01:19:36.261Z,2.67
2019-06-20T01:22:06.422Z,2.23
2019-06-20T01:24:36.407Z,2.20
2019-06-20T01:27:06.541Z,1.83
2019-06-20T01:29:36.645Z,3.80
2019-06-20T01:32:06.740Z,2.03
2019-06-20T01:34:37.664Z,2.50
2019-06-20T01:37:07.744Z,2.20
2019-06-20T01:39:37.702Z,2.67
2019-06-20T01:42:07.733Z,2.33
2019-06-20T01:44:37.810Z,2.60
2019-06-20T01:47:08.046Z,2.33
2019-06-20T01:49:38.040Z,3.47
2019-06-20T01:52:08.123Z,2.00
2019-06-20T01:54:38.138Z,3.73
2019-06-20T01:57:08.086Z,3.00
2019-06-20T01:59:38.910Z,2.77
2019-06-20T02:02:09.160Z,2.50
2019-06-20T02:04:39.256Z,3.17
2019-06-20T02:07:09.468Z,2.60
2019-06-20T02:09:39.548Z,2.75
2019-06-20T02:12:09.577Z,3.20
2019-06-20T02:14:39.525Z,3.13
2019-06-20T02:17:09.499Z,2.83
2019-06-20T02:19:39.425Z,2.73
2019-06-20T02:22:09.532Z,3.23
2019-06-20T02:24:40.376Z,2.30
2019-06-20T02:27:10.367Z,3.23
2019-06-20T02:29:40.436Z,2.70
2019-06-20T02:32:10.412Z,2.67
2019-06-20T02:34:40.367Z,2.60
2019-06-20T02:37:10.353Z,2.33
2019-06-20T02:39:40.350Z,8.55
2019-06-20T02:42:10.366Z,3.67
2019-06-20T02:44:40.424Z,6.73
2019-06-20T02:47:10.301Z,3.00
2019-06-20T02:49:41.358Z,2.77
2019-06-20T02:52:11.510Z,3.27
2019-06-20T02:54:41.492Z,3.50
2019-06-20T02:57:11.420Z,3.33
2019-06-20T02:59:41.415Z,3.90
2019-06-20T03:02:11.402Z,4.10
2019-06-20T03:04:41.384Z,5.00
2019-06-20T03:07:11.408Z,3.53
2019-06-20T03:09:43.817Z,3.43
2019-06-20T03:12:13.693Z,4.33
2019-06-20T03:14:46.838Z,3.73
2019-06-20T03:17:16.863Z,3.67
2019-06-20T03:19:49.162Z,3.17
2019-06-20T03:22:19.253Z,3.60
2019-06-20T03:24:49.210Z,4.90
2019-06-20T03:27:19.371Z,5.40
2019-06-20T03:29:49.413Z,4.17
2019-06-20T03:32:19.481Z,4.63
2019-06-20T03:34:49.390Z,5.40
2019-06-20T03:37:19.279Z,4.15
2019-06-20T03:39:49.289Z,4.40
2019-06-20T03:42:19.356Z,13.80
2019-06-20T03:45:01.747Z,6.00
2019-06-20T03:47:21.155Z,5.80
2019-06-20T03:49:51.035Z,5.50
2019-06-20T03:52:20.955Z,5.33
2019-06-20T03:54:50.959Z,7.80
2019-06-20T03:57:21.936Z,18.70
2019-06-20T03:59:51.848Z,5.03
2019-06-20T04:02:21.817Z,4.63
2019-06-20T04:04:51.716Z,5.90
2019-06-20T04:07:22.108Z,6.20
2019-06-20T04:09:52.097Z,7.20
2019-06-20T04:12:22.008Z,5.77
2019-06-20T04:15:18.878Z,6.35
2019-06-20T04:17:43.372Z,5.57
2019-06-20T04:20:14.158Z,9.50
2019-06-20T04:22:47.225Z,6.58
2019-06-20T04:25:17.651Z,8.33
2019-06-20T04:27:49.383Z,4.53
2019-06-20T04:30:20.218Z,4.87
2019-06-20T04:32:50.346Z,4.20
2019-06-20T04:35:20.257Z,5.50
2019-06-20T04:37:50.388Z,4.83
2019-06-20T04:40:21.970Z,5.45
2019-06-20T04:42:51.843Z,4.70
2019-06-20T04:45:39.307Z,5.60
2019-06-20T04:48:09.196Z,10.13
2019-06-20T04:50:39.113Z,5.87
2019-06-20T04:53:09.097Z,6.20
2019-06-20T04:55:39.158Z,5.20
2019-06-20T04:58:09.057Z,5.03
2019-06-20T05:00:39.389Z,5.00
2019-06-20T05:03:09.455Z,5.77
2019-06-20T05:05:39.517Z,7.43
2019-06-20T05:08:09.493Z,9.67
2019-06-20T05:10:39.510Z,6.90
2019-06-20T05:13:09.561Z,5.07
2019-06-20T05:15:52.011Z,6.27
2019-06-20T05:18:11.742Z,5.40
2019-06-20T05:20:41.851Z,4.87
2019-06-20T05:23:11.809Z,5.50
2019-06-20T05:25:41.732Z,4.87
2019-06-20T05:28:11.720Z,9.87
2019-06-20T05:30:41.600Z,4.43
2019-06-20T05:33:11.521Z,4.65
2019-06-20T05:35:42.578Z,4.40
2019-06-20T05:38:12.520Z,4.37
2019-06-20T05:40:43.503Z,5.20
2019-06-20T05:43:13.596Z,7.10
2019-06-20T05:45:47.623Z,4.90
2019-06-20T05:48:15.146Z,4.90
2019-06-20T05:50:45.228Z,8.13
2019-06-20T05:53:15.319Z,5.00
2019-06-20T05:55:45.306Z,5.63
2019-06-20T05:58:15.504Z,4.73
2019-06-20T06:00:45.536Z,4.80
2019-06-20T06:03:16.017Z,5.37
2019-06-20T06:05:47.205Z,4.87
2019-06-20T06:08:17.158Z,9.97
2019-06-20T06:10:47.165Z,16.23
2019-06-20T06:13:17.267Z,6.53
2019-06-20T06:15:47.286Z,5.17
2019-06-20T06:18:17.198Z,4.50
2019-06-20T06:20:47.201Z,5.30
2019-06-20T06:23:17.192Z,6.07
2019-06-20T06:25:47.247Z,5.83
2019-06-20T06:28:17.218Z,8.83
2019-06-20T06:30:47.272Z,8.60
2019-06-20T06:33:17.232Z,5.03
2019-06-20T06:35:47.328Z,5.42
2019-06-20T06:38:22.054Z,5.57
2019-06-20T06:40:48.867Z,4.67
2019-06-20T06:43:18.821Z,5.47
2019-06-20T06:45:48.898Z,5.30
2019-06-20T06:48:19.168Z,4.90
2019-06-20T06:50:49.224Z,5.87
2019-06-20T06:53:19.165Z,7.37
2019-06-20T06:55:49.231Z,6.03
2019-06-20T06:58:19.220Z,5.27
2019-06-20T07:00:49.117Z,5.47
2019-06-20T07:03:19.084Z,4.43
2019-06-20T07:05:49.069Z,5.93
2019-06-20T07:08:19.185Z,7.00
2019-06-20T07:10:49.229Z,5.10
2019-06-20T07:13:19.818Z,6.73
2019-06-20T07:15:49.831Z,4.57
2019-06-20T07:18:19.745Z,5.10
2019-06-20T07:20:49.678Z,4.60
2019-06-20T07:23:19.572Z,5.67
2019-06-20T07:25:49.549Z,4.77
2019-06-20T07:28:19.543Z,12.10
2019-06-20T07:30:49.505Z,4.90
2019-06-20T07:33:19.489Z,4.30
2019-06-20T07:35:49.566Z,6.55
2019-06-20T07:38:20.068Z,6.40
2019-06-20T07:40:49.977Z,4.03
2019-06-20T07:43:19.938Z,3.50
2019-06-20T07:46:02.042Z,4.57
2019-06-20T07:48:21.453Z,4.62
2019-06-20T07:50:51.504Z,7.97
2019-06-20T07:53:21.396Z,4.60
2019-06-20T07:55:51.335Z,4.70
2019-06-20T07:58:21.287Z,4.40
2019-06-20T08:00:51.273Z,5.40
2019-06-20T08:03:21.443Z,5.43
2019-06-20T08:05:51.479Z,4.77
2019-06-20T08:08:21.452Z,4.77
2019-06-20T08:10:51.856Z,5.63
2019-06-20T08:13:21.815Z,4.17
2019-06-20T08:15:51.818Z,4.73
2019-06-20T08:18:21.905Z,4.17
2019-06-20T08:20:51.921Z,3.53
2019-06-20T08:23:22.323Z,3.53
2019-06-20T08:25:52.357Z,4.13
2019-06-20T08:28:22.342Z,3.50
2019-06-20T08:30:52.334Z,10.53
2019-06-20T08:33:22.409Z,3.85
2019-06-20T08:35:52.447Z,3.80
2019-06-20T08:38:22.592Z,4.63
2019-06-20T08:40:52.581Z,3.67
2019-06-20T08:43:22.715Z,4.53
2019-06-20T08:45:53.549Z,3.60
2019-06-20T08:48:23.784Z,3.80
2019-06-20T08:50:53.782Z,4.17
2019-06-20T08:53:23.848Z,3.70
2019-06-20T08:55:54.496Z,3.90
2019-06-20T08:58:25.724Z,6.70
2019-06-20T09:00:57.116Z,4.83
2019-06-20T09:03:27.570Z,4.30
2019-06-20T09:05:58.206Z,3.87
2019-06-20T09:08:28.621Z,4.17
2019-06-20T09:11:00.094Z,4.23
2019-06-20T09:13:30.008Z,9.70
2019-06-20T09:16:00.908Z,4.80
2019-06-20T09:18:30.963Z,4.60
2019-06-20T09:21:02.072Z,5.00
2019-06-20T09:23:32.041Z,7.00
2019-06-20T09:26:02.128Z,4.97
2019-06-20T09:28:32.066Z,8.03
2019-06-20T09:31:04.000Z,5.13
2019-06-20T09:33:34.384Z,4.65
2019-06-20T09:36:05.217Z,4.90
2019-06-20T09:38:35.145Z,4.90
2019-06-20T09:41:05.326Z,6.20
2019-06-20T09:43:35.256Z,5.53
2019-06-20T09:46:05.790Z,4.60
2019-06-20T09:48:35.814Z,6.43
2019-06-20T09:51:05.867Z,6.50
2019-06-20T09:53:35.781Z,4.50
2019-06-20T09:56:05.961Z,5.43
2019-06-20T09:58:36.021Z,4.83
2019-06-20T10:01:07.048Z,4.43
2019-06-20T10:03:36.967Z,4.97
2019-06-20T10:06:13.946Z,4.93
2019-06-20T10:08:38.765Z,5.00
2019-06-20T10:11:08.674Z,4.67
2019-06-20T10:13:38.790Z,5.40
2019-06-20T10:16:08.768Z,5.43
2019-06-20T10:18:38.775Z,5.27
2019-06-20T10:21:08.970Z,5.10
2019-06-20T10:23:38.942Z,7.17
2019-06-20T10:26:09.043Z,5.37
2019-06-20T10:28:39.050Z,5.87
2019-06-20T10:31:09.241Z,4.75
2019-06-20T10:33:39.227Z,6.75
2019-06-20T10:36:09.232Z,6.35
2019-06-20T10:38:39.212Z,5.67
2019-06-20T10:41:09.221Z,4.67
2019-06-20T10:43:39.359Z,5.05
2019-06-20T10:46:09.512Z,4.78
2019-06-20T10:48:39.710Z,5.35
2019-06-20T10:51:39.095Z,5.65
2019-06-20T10:54:09.172Z,6.07
2019-06-20T10:56:40.447Z,10.53
2019-06-20T10:59:11.124Z,5.73
2019-06-20T11:01:42.681Z,7.05
2019-06-20T11:04:13.023Z,6.07
2019-06-20T11:06:43.231Z,8.43
2019-06-20T11:09:14.361Z,6.87
2019-06-20T11:11:44.882Z,7.17
2019-06-20T11:14:14.843Z,6.50
2019-06-20T11:16:45.250Z,7.67
2019-06-20T11:19:15.195Z,7.30
2019-06-20T11:21:45.712Z,7.80
2019-06-20T11:24:15.904Z,6.20
2019-06-20T11:26:46.071Z,6.25
2019-06-20T11:29:16.109Z,5.60
2019-06-20T11:31:47.863Z,5.67
2019-06-20T11:34:18.901Z,5.10
2019-06-20T11:36:48.893Z,4.40
2019-06-20T11:39:18.817Z,4.33
2019-06-20T11:41:48.862Z,3.93
2019-06-20T11:44:18.979Z,4.80
2019-06-20T11:46:49.069Z,5.10
2019-06-20T11:49:19.349Z,4.47
2019-06-20T11:51:49.266Z,5.10
2019-06-20T11:54:19.205Z,4.40
2019-06-20T11:56:49.215Z,4.03
2019-06-20T11:59:20.299Z,7.72
2019-06-20T12:01:51.235Z,3.83
2019-06-20T12:04:21.263Z,3.97
2019-06-20T12:06:51.272Z,3.93
2019-06-20T12:09:21.290Z,3.77
2019-06-20T12:11:51.361Z,4.53
2019-06-20T12:14:21.432Z,4.62
2019-06-20T12:16:52.802Z,4.00
2019-06-20T12:19:22.757Z,4.10
2019-06-20T12:21:52.733Z,5.72
2019-06-20T12:24:22.727Z,2.60
2019-06-20T12:26:52.709Z,3.20
2019-06-20T12:29:22.891Z,3.77
2019-06-20T12:31:52.926Z,4.37
2019-06-20T12:34:22.874Z,3.30
2019-06-20T12:36:52.867Z,2.97
2019-06-20T12:39:22.788Z,3.40
2019-06-20T12:41:52.712Z,3.10
2019-06-20T12:44:22.791Z,3.20
2019-06-20T12:46:52.976Z,3.65
2019-06-20T12:49:24.485Z,3.47
2019-06-20T12:51:54.461Z,3.30
2019-06-20T12:54:24.460Z,3.60
2019-06-20T12:56:54.612Z,5.30
2019-06-20T12:59:24.900Z,4.60
2019-06-20T13:01:55.126Z,4.03
2019-06-20T13:04:25.106Z,4.30
2019-06-20T13:06:56.464Z,4.60
2019-06-20T13:09:26.783Z,4.50
2019-06-20T13:11:57.159Z,4.33
2019-06-20T13:14:27.203Z,5.33
2019-06-20T13:16:57.374Z,4.80
2019-06-20T13:19:27.548Z,4.47
2019-06-20T13:21:57.515Z,4.30
2019-06-20T13:24:27.455Z,5.20
2019-06-20T13:27:00.169Z,5.03
2019-06-20T13:29:30.192Z,5.47
2019-06-20T13:32:04.346Z,4.33
2019-06-20T13:34:32.624Z,4.20
2019-06-20T13:37:02.605Z,5.17
2019-06-20T13:39:32.624Z,4.00
2019-06-20T13:42:02.588Z,4.73
2019-06-20T13:44:32.589Z,4.37
2019-06-20T13:47:02.676Z,3.70
2019-06-20T13:49:33.083Z,5.23
2019-06-20T13:52:03.077Z,4.07
2019-06-20T13:54:33.017Z,4.60
2019-06-20T13:57:03.010Z,4.27
2019-06-20T13:59:32.974Z,5.17
2019-06-20T14:02:06.655Z,4.67
2019-06-20T14:04:34.807Z,4.73
2019-06-20T14:07:04.883Z,4.80
2019-06-20T14:09:34.797Z,3.97
2019-06-20T14:12:04.927Z,4.97
2019-06-20T14:14:35.788Z,4.30
2019-06-20T14:17:05.912Z,4.17
2019-06-20T14:19:35.848Z,4.00
2019-06-20T14:22:05.941Z,4.58
2019-06-20T14:24:35.854Z,4.83
2019-06-20T14:27:05.990Z,4.63
2019-06-20T14:29:36.013Z,5.10
2019-06-20T14:32:21.533Z,0.50
2019-06-20T14:34:39.862Z,0.60
2019-06-20T14:37:09.835Z,0.60
2019-06-20T14:39:39.777Z,0.60
2019-06-20T14:42:09.840Z,0.60
2019-06-20T14:44:39.941Z,0.60
2019-06-20T14:47:11.116Z,0.60
2019-06-20T14:49:41.178Z,0.60
2019-06-20T14:52:11.222Z,0.60
2019-06-20T14:54:41.309Z,0.60
2019-06-20T14:57:12.222Z,0.60
2019-06-20T14:59:43.169Z,0.60
2019-06-20T15:02:14.126Z,0.60
2019-06-20T15:04:44.988Z,0.60
2019-06-20T15:07:15.886Z,0.60
2019-06-20T15:09:46.265Z,0.60
2019-06-20T15:12:17.789Z,0.60
2019-06-20T15:14:48.378Z,1.70
2019-06-20T15:17:19.778Z,0.60
2019-06-20T15:19:49.720Z,0.60
2019-06-20T15:22:20.597Z,0.70
2019-06-20T15:24:53.436Z,0.60
2019-06-20T15:27:22.240Z,0.60
2019-06-20T15:29:52.350Z,0.60
2019-06-20T15:32:22.263Z,0.60
2019-06-20T15:34:53.217Z,0.60
2019-06-20T15:37:23.425Z,0.50
2019-06-20T15:39:55.459Z,2.00
2019-06-20T15:42:25.546Z,0.83
2019-06-20T15:44:55.761Z,0.50
2019-06-20T15:47:25.607Z,0.50
2019-06-20T15:49:55.537Z,0.50
2019-06-20T15:52:25.518Z,0.50
2019-06-20T15:54:55.451Z,0.50
2019-06-20T15:57:25.392Z,0.50
2019-06-20T15:59:55.306Z,0.50
2019-06-20T16:02:25.221Z,0.50
2019-06-20T16:04:55.974Z,0.50
2019-06-20T16:07:25.919Z,0.50
2019-06-20T16:09:55.947Z,0.50
2019-06-20T16:12:26.011Z,0.50
2019-06-20T16:14:56.019Z,0.50
2019-06-20T16:17:25.994Z,0.50
2019-06-20T16:19:55.919Z,2.73
2019-06-20T16:22:25.921Z,0.50
2019-06-20T16:26:59.828Z,0.50
2019-06-20T16:29:29.729Z,0.53
2019-06-20T16:31:59.730Z,0.50
2019-06-20T16:34:29.650Z,0.50
2019-06-20T16:37:09.599Z,0.50
2019-06-20T16:39:32.286Z,0.50
2019-06-20T16:42:02.310Z,0.50
2019-06-20T16:44:32.395Z,0.50
2019-06-20T16:49:22.173Z,0.50
2019-06-20T16:51:52.079Z,0.50
2019-06-20T16:54:22.014Z,0.50
2019-06-20T16:56:51.991Z,0.50
2019-06-20T16:59:22.106Z,0.50
2019-06-20T17:01:52.636Z,0.50
2019-06-20T17:04:22.735Z,0.50
